Las Coloradas, Argentina
Current Conditions -  °F | °C
As of 5:00 AM on Sunday 26 Oct 2014 (Local Time) from SAZS Reporting Station
Clear Clear  
Wind Chill: 34°   Ceiling: Unl
Heat Index: 39°   Visibility: 6mi
Dew Point: 30°   Wind: 7mph
Humidity: 70%   Direction: 290°WNW
Pressure: 29.83"   Gusts: NA
Location:  39.55°S, 70.58°W
Report Text: SAZS 260800Z 29006KT CAVOK 04/M01 Q1010
Loading
Personal Weather Stations






























Interactive Weather Map
Tropical Storm Tracking
New forecast layout! Learn more

10-Day Weather Forecast

Advertisements
Track Severe Weather on mobile